sensor_id;sensor_type;location;lat;lon;timestamp;temperature;humidity
10129;DHT22;5104;50.720;7.044;2024-02-15T00:01:02;11.80;99.90
10129;DHT22;5104;50.720;7.044;2024-02-15T00:03:29;11.80;99.90
10129;DHT22;5104;50.720;7.044;2024-02-15T00:05:58;11.80;99.90
10129;DHT22;5104;50.720;7.044;2024-02-15T00:08:25;11.80;99.90
10129;DHT22;5104;50.720;7.044;2024-02-15T00:10:52;11.80;99.90
10129;DHT22;5104;50.720;7.044;2024-02-15T00:13:20;11.80;99.90
10129;DHT22;5104;50.720;7.044;2024-02-15T00:15:47;11.80;99.90
10129;DHT22;5104;50.720;7.044;2024-02-15T00:18:14;11.80;99.90
10129;DHT22;5104;50.720;7.044;2024-02-15T00:20:41;11.80;99.90
10129;DHT22;5104;50.720;7.044;2024-02-15T00:23:11;11.80;99.90
10129;DHT22;5104;50.720;7.044;2024-02-15T00:25:37;11.80;99.90
10129;DHT22;5104;50.720;7.044;2024-02-15T00:28:05;11.70;99.90
10129;DHT22;5104;50.720;7.044;2024-02-15T00:30:33;11.70;99.90
10129;DHT22;5104;50.720;7.044;2024-02-15T00:32:59;11.70;99.90
10129;DHT22;5104;50.720;7.044;2024-02-15T00:35:28;11.70;99.90
10129;DHT22;5104;50.720;7.044;2024-02-15T00:37:55;11.60;99.90
10129;DHT22;5104;50.720;7.044;2024-02-15T00:40:24;11.60;99.90
10129;DHT22;5104;50.720;7.044;2024-02-15T00:42:51;11.50;99.90
10129;DHT22;5104;50.720;7.044;2024-02-15T00:45:18;11.50;99.90
10129;DHT22;5104;50.720;7.044;2024-02-15T00:47:45;11.40;99.90
10129;DHT22;5104;50.720;7.044;2024-02-15T00:50:12;11.30;99.90
10129;DHT22;5104;50.720;7.044;2024-02-15T00:52:39;11.20;99.90
10129;DHT22;5104;50.720;7.044;2024-02-15T00:55:06;11.20;99.90
10129;DHT22;5104;50.720;7.044;2024-02-15T00:57:34;11.10;99.90
10129;DHT22;5104;50.720;7.044;2024-02-15T01:00:01;11.10;99.90
10129;DHT22;5104;50.720;7.044;2024-02-15T01:02:29;11.10;99.90
10129;DHT22;5104;50.720;7.044;2024-02-15T01:04:56;11.10;99.90
10129;DHT22;5104;50.720;7.044;2024-02-15T01:07:24;11.10;99.90
10129;DHT22;5104;50.720;7.044;2024-02-15T01:09:53;11.20;99.90
10129;DHT22;5104;50.720;7.044;2024-02-15T01:12:20;11.20;99.90
10129;DHT22;5104;50.720;7.044;2024-02-15T01:14:48;11.30;99.90
10129;DHT22;5104;50.720;7.044;2024-02-15T01:17:15;11.30;99.90
10129;DHT22;5104;50.720;7.044;2024-02-15T01:19:42;11.40;99.90
10129;DHT22;5104;50.720;7.044;2024-02-15T01:22:09;11.40;99.90
10129;DHT22;5104;50.720;7.044;2024-02-15T01:24:36;11.40;99.90
10129;DHT22;5104;50.720;7.044;2024-02-15T01:27:03;11.40;99.90
10129;DHT22;5104;50.720;7.044;2024-02-15T01:29:31;11.40;99.90
10129;DHT22;5104;50.720;7.044;2024-02-15T01:31:59;11.50;99.90
10129;DHT22;5104;50.720;7.044;2024-02-15T01:34:27;11.50;99.90
10129;DHT22;5104;50.720;7.044;2024-02-15T01:36:54;11.50;99.90
10129;DHT22;5104;50.720;7.044;2024-02-15T01:39:21;11.50;99.90
10129;DHT22;5104;50.720;7.044;2024-02-15T01:41:47;11.50;99.90
10129;DHT22;5104;50.720;7.044;2024-02-15T01:44:16;11.50;99.90
10129;DHT22;5104;50.720;7.044;2024-02-15T01:46:43;11.50;99.90
10129;DHT22;5104;50.720;7.044;2024-02-15T01:49:13;11.50;99.90
10129;DHT22;5104;50.720;7.044;2024-02-15T01:51:41;11.50;99.90
10129;DHT22;5104;50.720;7.044;2024-02-15T01:54:10;11.50;99.90
10129;DHT22;5104;50.720;7.044;2024-02-15T01:56:37;11.50;99.90
10129;DHT22;5104;50.720;7.044;2024-02-15T01:59:04;11.50;99.90
10129;DHT22;5104;50.720;7.044;2024-02-15T02:01:32;11.50;99.90
10129;DHT22;5104;50.720;7.044;2024-02-15T02:04:00;11.50;99.90
10129;DHT22;5104;50.720;7.044;2024-02-15T02:06:30;11.50;99.90
10129;DHT22;5104;50.720;7.044;2024-02-15T02:08:57;11.60;99.90
10129;DHT22;5104;50.720;7.044;2024-02-15T02:11:24;11.60;99.90
10129;DHT22;5104;50.720;7.044;2024-02-15T02:13:51;11.60;99.90
10129;DHT22;5104;50.720;7.044;2024-02-15T02:16:25;11.60;99.90
10129;DHT22;5104;50.720;7.044;2024-02-15T02:18:54;11.60;99.90
10129;DHT22;5104;50.720;7.044;2024-02-15T02:21:21;11.60;99.90
10129;DHT22;5104;50.720;7.044;2024-02-15T02:23:52;11.60;99.90
10129;DHT22;5104;50.720;7.044;2024-02-15T02:26:21;11.60;99.90
10129;DHT22;5104;50.720;7.044;2024-02-15T02:28:47;11.60;99.90
10129;DHT22;5104;50.720;7.044;2024-02-15T02:31:14;11.60;99.90
10129;DHT22;5104;50.720;7.044;2024-02-15T02:33:42;11.60;99.90
10129;DHT22;5104;50.720;7.044;2024-02-15T02:36:10;11.70;99.90
10129;DHT22;5104;50.720;7.044;2024-02-15T02:38:38;11.70;99.90
10129;DHT22;5104;50.720;7.044;2024-02-15T02:41:05;11.70;99.90
10129;DHT22;5104;50.720;7.044;2024-02-15T02:43:34;11.70;99.90
10129;DHT22;5104;50.720;7.044;2024-02-15T02:46:00;11.70;99.90
10129;DHT22;5104;50.720;7.044;2024-02-15T02:48:27;11.70;99.90
10129;DHT22;5104;50.720;7.044;2024-02-15T02:50:54;11.70;99.90
10129;DHT22;5104;50.720;7.044;2024-02-15T02:53:21;11.70;99.90
10129;DHT22;5104;50.720;7.044;2024-02-15T02:55:49;11.60;99.90
10129;DHT22;5104;50.720;7.044;2024-02-15T02:58:16;11.60;99.90
10129;DHT22;5104;50.720;7.044;2024-02-15T03:00:44;11.50;99.90
10129;DHT22;5104;50.720;7.044;2024-02-15T03:03:12;11.50;99.90
10129;DHT22;5104;50.720;7.044;2024-02-15T03:05:38;11.50;99.90
10129;DHT22;5104;50.720;7.044;2024-02-15T03:08:08;11.50;99.90
10129;DHT22;5104;50.720;7.044;2024-02-15T03:10:35;11.50;99.90
10129;DHT22;5104;50.720;7.044;2024-02-15T03:13:02;11.60;99.90
10129;DHT22;5104;50.720;7.044;2024-02-15T03:15:30;11.50;99.90
10129;DHT22;5104;50.720;7.044;2024-02-15T03:17:59;11.60;99.90
10129;DHT22;5104;50.720;7.044;2024-02-15T03:20:32;11.50;99.90
10129;DHT22;5104;50.720;7.044;2024-02-15T03:23:00;11.50;99.90
10129;DHT22;5104;50.720;7.044;2024-02-15T03:25:28;11.40;99.90
10129;DHT22;5104;50.720;7.044;2024-02-15T03:27:56;11.40;99.90
10129;DHT22;5104;50.720;7.044;2024-02-15T03:30:24;11.30;99.90
10129;DHT22;5104;50.720;7.044;2024-02-15T03:32:51;11.30;99.90
10129;DHT22;5104;50.720;7.044;2024-02-15T03:35:20;11.20;99.90
10129;DHT22;5104;50.720;7.044;2024-02-15T03:37:48;11.20;99.90
10129;DHT22;5104;50.720;7.044;2024-02-15T03:40:17;11.20;99.90
10129;DHT22;5104;50.720;7.044;2024-02-15T03:42:44;11.20;99.90
10129;DHT22;5104;50.720;7.044;2024-02-15T03:45:12;11.30;99.90
10129;DHT22;5104;50.720;7.044;2024-02-15T03:47:39;11.30;99.90
10129;DHT22;5104;50.720;7.044;2024-02-15T03:50:07;11.30;99.90
10129;DHT22;5104;50.720;7.044;2024-02-15T03:52:36;11.40;99.90
10129;DHT22;5104;50.720;7.044;2024-02-15T03:55:04;11.40;99.90
10129;DHT22;5104;50.720;7.044;2024-02-15T03:57:33;11.50;99.90
10129;DHT22;5104;50.720;7.044;2024-02-15T04:00:00;11.60;99.90
10129;DHT22;5104;50.720;7.044;2024-02-15T04:02:27;11.60;99.90
10129;DHT22;5104;50.720;7.044;2024-02-15T04:04:56;11.70;99.90
10129;DHT22;5104;50.720;7.044;2024-02-15T04:07:23;11.70;99.90
10129;DHT22;5104;50.720;7.044;2024-02-15T04:09:53;11.60;99.90
10129;DHT22;5104;50.720;7.044;2024-02-15T04:12:20;11.50;99.90
10129;DHT22;5104;50.720;7.044;2024-02-15T04:14:48;11.50;99.90
10129;DHT22;5104;50.720;7.044;2024-02-15T04:17:16;11.50;99.90
10129;DHT22;5104;50.720;7.044;2024-02-15T04:19:47;11.40;99.90
10129;DHT22;5104;50.720;7.044;2024-02-15T04:22:16;11.40;99.90
10129;DHT22;5104;50.720;7.044;2024-02-15T04:24:43;11.30;99.90
10129;DHT22;5104;50.720;7.044;2024-02-15T04:27:12;11.40;99.90
10129;DHT22;5104;50.720;7.044;2024-02-15T04:29:39;11.40;99.90
10129;DHT22;5104;50.720;7.044;2024-02-15T04:32:07;11.40;99.90
10129;DHT22;5104;50.720;7.044;2024-02-15T04:34:35;11.40;99.90
10129;DHT22;5104;50.720;7.044;2024-02-15T04:37:03;11.30;99.90
10129;DHT22;5104;50.720;7.044;2024-02-15T04:39:33;11.30;99.90
10129;DHT22;5104;50.720;7.044;2024-02-15T04:42:01;11.20;99.90
10129;DHT22;5104;50.720;7.044;2024-02-15T04:44:29;11.20;99.90
10129;DHT22;5104;50.720;7.044;2024-02-15T04:47:00;11.10;99.90
10129;DHT22;5104;50.720;7.044;2024-02-15T04:49:27;11.10;99.90
10129;DHT22;5104;50.720;7.044;2024-02-15T04:51:54;11.20;99.90
10129;DHT22;5104;50.720;7.044;2024-02-15T04:54:22;11.20;99.90
10129;DHT22;5104;50.720;7.044;2024-02-15T04:56:49;11.10;99.90
10129;DHT22;5104;50.720;7.044;2024-02-15T04:59:20;11.10;99.90
10129;DHT22;5104;50.720;7.044;2024-02-15T05:01:51;11.10;99.90
10129;DHT22;5104;50.720;7.044;2024-02-15T05:04:18;11.10;99.90
10129;DHT22;5104;50.720;7.044;2024-02-15T05:06:45;11.10;99.90
10129;DHT22;5104;50.720;7.044;2024-02-15T05:09:12;11.10;99.90
10129;DHT22;5104;50.720;7.044;2024-02-15T05:11:40;11.10;99.90
10129;DHT22;5104;50.720;7.044;2024-02-15T05:14:08;11.10;99.90
10129;DHT22;5104;50.720;7.044;2024-02-15T05:16:36;11.10;99.90
10129;DHT22;5104;50.720;7.044;2024-02-15T05:19:08;11.20;99.90
10129;DHT22;5104;50.720;7.044;2024-02-15T05:21:36;11.20;99.90
10129;DHT22;5104;50.720;7.044;2024-02-15T05:24:05;11.20;99.90
10129;DHT22;5104;50.720;7.044;2024-02-15T05:26:32;11.20;99.90
10129;DHT22;5104;50.720;7.044;2024-02-15T05:28:59;11.10;99.90
10129;DHT22;5104;50.720;7.044;2024-02-15T05:31:26;11.10;99.90
10129;DHT22;5104;50.720;7.044;2024-02-15T05:33:54;11.20;99.90
10129;DHT22;5104;50.720;7.044;2024-02-15T05:36:22;11.20;99.90
10129;DHT22;5104;50.720;7.044;2024-02-15T05:38:52;11.30;99.90
10129;DHT22;5104;50.720;7.044;2024-02-15T05:41:20;11.30;99.90
10129;DHT22;5104;50.720;7.044;2024-02-15T05:43:47;11.40;99.90
10129;DHT22;5104;50.720;7.044;2024-02-15T05:46:15;11.40;99.90
10129;DHT22;5104;50.720;7.044;2024-02-15T05:48:41;11.50;99.90
10129;DHT22;5104;50.720;7.044;2024-02-15T05:51:09;11.50;99.90
10129;DHT22;5104;50.720;7.044;2024-02-15T05:53:37;11.60;99.90
10129;DHT22;5104;50.720;7.044;2024-02-15T05:56:05;11.60;99.90
10129;DHT22;5104;50.720;7.044;2024-02-15T05:58:33;11.60;99.90
10129;DHT22;5104;50.720;7.044;2024-02-15T06:01:00;11.60;99.90
10129;DHT22;5104;50.720;7.044;2024-02-15T06:03:28;11.70;99.90
10129;DHT22;5104;50.720;7.044;2024-02-15T06:05:55;11.70;99.90
10129;DHT22;5104;50.720;7.044;2024-02-15T06:08:24;11.70;99.90
10129;DHT22;5104;50.720;7.044;2024-02-15T06:10:52;11.70;99.90
10129;DHT22;5104;50.720;7.044;2024-02-15T06:13:19;11.80;99.90
10129;DHT22;5104;50.720;7.044;2024-02-15T06:15:46;11.70;99.90
10129;DHT22;5104;50.720;7.044;2024-02-15T06:18:18;11.80;99.90
10129;DHT22;5104;50.720;7.044;2024-02-15T06:20:47;11.80;99.90
10129;DHT22;5104;50.720;7.044;2024-02-15T06:23:15;11.80;99.90
10129;DHT22;5104;50.720;7.044;2024-02-15T06:25:42;11.90;99.90
10129;DHT22;5104;50.720;7.044;2024-02-15T06:28:10;11.90;99.90
10129;DHT22;5104;50.720;7.044;2024-02-15T06:31:00;11.90;99.90
10129;DHT22;5104;50.720;7.044;2024-02-15T06:33:44;11.90;99.90
10129;DHT22;5104;50.720;7.044;2024-02-15T06:36:28;11.90;99.90
10129;DHT22;5104;50.720;7.044;2024-02-15T06:39:12;11.90;99.90
10129;DHT22;5104;50.720;7.044;2024-02-15T06:41:56;11.90;99.90
10129;DHT22;5104;50.720;7.044;2024-02-15T06:44:25;11.90;99.90
10129;DHT22;5104;50.720;7.044;2024-02-15T06:46:51;11.90;99.90
10129;DHT22;5104;50.720;7.044;2024-02-15T06:49:19;11.90;99.90
10129;DHT22;5104;50.720;7.044;2024-02-15T06:51:47;11.90;99.90
10129;DHT22;5104;50.720;7.044;2024-02-15T06:54:15;11.90;99.90
10129;DHT22;5104;50.720;7.044;2024-02-15T06:56:43;11.90;99.90
10129;DHT22;5104;50.720;7.044;2024-02-15T06:59:11;11.90;99.90
10129;DHT22;5104;50.720;7.044;2024-02-15T07:01:41;11.80;99.90
10129;DHT22;5104;50.720;7.044;2024-02-15T07:04:08;11.90;99.90
10129;DHT22;5104;50.720;7.044;2024-02-15T07:06:36;11.90;99.90
10129;DHT22;5104;50.720;7.044;2024-02-15T07:09:03;11.80;99.90
10129;DHT22;5104;50.720;7.044;2024-02-15T07:11:31;11.90;99.90
10129;DHT22;5104;50.720;7.044;2024-02-15T07:13:58;11.90;99.90
10129;DHT22;5104;50.720;7.044;2024-02-15T07:16:25;11.90;99.90
10129;DHT22;5104;50.720;7.044;2024-02-15T07:18:53;11.90;99.90
10129;DHT22;5104;50.720;7.044;2024-02-15T07:21:20;11.90;99.90
10129;DHT22;5104;50.720;7.044;2024-02-15T07:23:51;11.90;99.90
10129;DHT22;5104;50.720;7.044;2024-02-15T07:26:20;11.90;99.90
10129;DHT22;5104;50.720;7.044;2024-02-15T07:28:50;11.90;99.90
10129;DHT22;5104;50.720;7.044;2024-02-15T07:31:18;11.90;99.90
10129;DHT22;5104;50.720;7.044;2024-02-15T07:33:47;11.90;99.90
10129;DHT22;5104;50.720;7.044;2024-02-15T07:36:18;11.90;99.90
10129;DHT22;5104;50.720;7.044;2024-02-15T07:38:45;11.90;99.90
10129;DHT22;5104;50.720;7.044;2024-02-15T07:41:14;11.90;99.90
10129;DHT22;5104;50.720;7.044;2024-02-15T07:43:41;11.90;99.90
10129;DHT22;5104;50.720;7.044;2024-02-15T07:46:11;11.90;99.90
10129;DHT22;5104;50.720;7.044;2024-02-15T07:48:40;11.90;99.90
10129;DHT22;5104;50.720;7.044;2024-02-15T07:51:11;12.00;99.90
10129;DHT22;5104;50.720;7.044;2024-02-15T07:53:39;12.00;99.90
10129;DHT22;5104;50.720;7.044;2024-02-15T07:56:08;12.00;99.90
10129;DHT22;5104;50.720;7.044;2024-02-15T07:58:38;12.00;99.90
10129;DHT22;5104;50.720;7.044;2024-02-15T08:01:07;12.10;99.90
10129;DHT22;5104;50.720;7.044;2024-02-15T08:03:35;12.10;99.90
10129;DHT22;5104;50.720;7.044;2024-02-15T08:06:02;12.20;99.90
10129;DHT22;5104;50.720;7.044;2024-02-15T08:08:32;12.10;99.90
10129;DHT22;5104;50.720;7.044;2024-02-15T08:11:02;12.10;99.90
10129;DHT22;5104;50.720;7.044;2024-02-15T08:13:29;12.10;99.90
10129;DHT22;5104;50.720;7.044;2024-02-15T08:15:56;12.00;99.90
10129;DHT22;5104;50.720;7.044;2024-02-15T08:18:23;12.10;99.90
10129;DHT22;5104;50.720;7.044;2024-02-15T08:20:51;12.10;99.90
10129;DHT22;5104;50.720;7.044;2024-02-15T08:23:18;12.10;99.90
10129;DHT22;5104;50.720;7.044;2024-02-15T08:25:45;12.20;99.90
10129;DHT22;5104;50.720;7.044;2024-02-15T08:28:13;12.20;99.90
10129;DHT22;5104;50.720;7.044;2024-02-15T08:30:40;12.20;99.90
10129;DHT22;5104;50.720;7.044;2024-02-15T08:33:07;12.20;99.90
10129;DHT22;5104;50.720;7.044;2024-02-15T08:35:36;12.30;99.90
10129;DHT22;5104;50.720;7.044;2024-02-15T08:38:05;12.30;99.90
10129;DHT22;5104;50.720;7.044;2024-02-15T08:40:32;12.30;99.90
10129;DHT22;5104;50.720;7.044;2024-02-15T08:42:59;12.20;99.90
10129;DHT22;5104;50.720;7.044;2024-02-15T08:45:27;12.30;99.90
10129;DHT22;5104;50.720;7.044;2024-02-15T08:47:54;12.30;99.90
10129;DHT22;5104;50.720;7.044;2024-02-15T08:50:21;12.30;99.90
10129;DHT22;5104;50.720;7.044;2024-02-15T08:52:49;12.30;99.90
10129;DHT22;5104;50.720;7.044;2024-02-15T08:55:16;12.30;99.90
10129;DHT22;5104;50.720;7.044;2024-02-15T08:57:46;12.40;99.90
10129;DHT22;5104;50.720;7.044;2024-02-15T09:00:13;12.40;99.90
10129;DHT22;5104;50.720;7.044;2024-02-15T09:02:43;12.40;99.90
10129;DHT22;5104;50.720;7.044;2024-02-15T09:05:09;12.50;99.90
10129;DHT22;5104;50.720;7.044;2024-02-15T09:07:39;12.60;99.90
10129;DHT22;5104;50.720;7.044;2024-02-15T09:10:08;12.60;99.90
10129;DHT22;5104;50.720;7.044;2024-02-15T09:12:36;12.70;99.90
10129;DHT22;5104;50.720;7.044;2024-02-15T09:15:06;12.80;99.90
10129;DHT22;5104;50.720;7.044;2024-02-15T09:17:33;13.00;99.90
10129;DHT22;5104;50.720;7.044;2024-02-15T09:20:07;13.10;99.90
10129;DHT22;5104;50.720;7.044;2024-02-15T09:22:40;13.20;99.90
10129;DHT22;5104;50.720;7.044;2024-02-15T09:25:08;13.30;99.90
10129;DHT22;5104;50.720;7.044;2024-02-15T09:27:35;13.40;99.90
10129;DHT22;5104;50.720;7.044;2024-02-15T09:30:02;13.60;99.90
10129;DHT22;5104;50.720;7.044;2024-02-15T09:32:33;13.70;99.90
10129;DHT22;5104;50.720;7.044;2024-02-15T09:35:01;13.60;99.90
10129;DHT22;5104;50.720;7.044;2024-02-15T09:37:29;13.60;99.90
10129;DHT22;5104;50.720;7.044;2024-02-15T09:39:58;13.70;99.90
10129;DHT22;5104;50.720;7.044;2024-02-15T09:42:33;13.80;99.90
10129;DHT22;5104;50.720;7.044;2024-02-15T09:45:00;13.90;99.90
10129;DHT22;5104;50.720;7.044;2024-02-15T09:47:33;13.90;99.90
10129;DHT22;5104;50.720;7.044;2024-02-15T09:50:01;14.00;99.90
10129;DHT22;5104;50.720;7.044;2024-02-15T09:52:31;14.10;99.90
10129;DHT22;5104;50.720;7.044;2024-02-15T09:54:59;14.00;99.90
10129;DHT22;5104;50.720;7.044;2024-02-15T09:57:27;14.10;99.90
10129;DHT22;5104;50.720;7.044;2024-02-15T09:59:54;14.30;99.90
10129;DHT22;5104;50.720;7.044;2024-02-15T10:02:22;14.50;1.00
10129;DHT22;5104;50.720;7.044;2024-02-15T10:04:49;14.50;99.90
10129;DHT22;5104;50.720;7.044;2024-02-15T10:07:16;14.80;99.90
10129;DHT22;5104;50.720;7.044;2024-02-15T10:09:45;15.00;31.30
10129;DHT22;5104;50.720;7.044;2024-02-15T10:12:12;15.00;1.00
10129;DHT22;5104;50.720;7.044;2024-02-15T10:14:48;15.20;1.00
10129;DHT22;5104;50.720;7.044;2024-02-15T10:17:18;15.20;1.00
10129;DHT22;5104;50.720;7.044;2024-02-15T10:20:02;15.20;1.00
10129;DHT22;5104;50.720;7.044;2024-02-15T10:22:29;15.30;1.00
10129;DHT22;5104;50.720;7.044;2024-02-15T10:25:10;15.30;1.00
10129;DHT22;5104;50.720;7.044;2024-02-15T10:27:38;15.30;99.90
10129;DHT22;5104;50.720;7.044;2024-02-15T10:30:15;15.50;99.90
10129;DHT22;5104;50.720;7.044;2024-02-15T10:32:43;15.60;76.70
10129;DHT22;5104;50.720;7.044;2024-02-15T10:35:10;15.70;99.90
10129;DHT22;5104;50.720;7.044;2024-02-15T10:37:41;15.90;26.50
10129;DHT22;5104;50.720;7.044;2024-02-15T10:40:11;15.90;99.90
10129;DHT22;5104;50.720;7.044;2024-02-15T10:42:40;15.70;99.90
10129;DHT22;5104;50.720;7.044;2024-02-15T10:45:09;15.80;99.90
10129;DHT22;5104;50.720;7.044;2024-02-15T10:47:37;15.80;99.90
10129;DHT22;5104;50.720;7.044;2024-02-15T10:50:06;15.60;99.90
10129;DHT22;5104;50.720;7.044;2024-02-15T10:52:37;15.80;99.90
10129;DHT22;5104;50.720;7.044;2024-02-15T10:55:10;15.90;99.90
10129;DHT22;5104;50.720;7.044;2024-02-15T10:57:44;16.10;99.90
10129;DHT22;5104;50.720;7.044;2024-02-15T11:00:15;16.00;99.90
10129;DHT22;5104;50.720;7.044;2024-02-15T11:02:54;15.90;99.90
10129;DHT22;5104;50.720;7.044;2024-02-15T11:05:29;15.90;76.00
10129;DHT22;5104;50.720;7.044;2024-02-15T11:08:00;15.90;99.90
10129;DHT22;5104;50.720;7.044;2024-02-15T11:10:29;15.90;99.90
10129;DHT22;5104;50.720;7.044;2024-02-15T11:12:57;16.10;99.90
10129;DHT22;5104;50.720;7.044;2024-02-15T11:15:44;16.40;1.00
10129;DHT22;5104;50.720;7.044;2024-02-15T11:18:44;16.40;91.10
10129;DHT22;5104;50.720;7.044;2024-02-15T11:21:15;16.70;1.00
10129;DHT22;5104;50.720;7.044;2024-02-15T11:23:42;16.70;1.00
10129;DHT22;5104;50.720;7.044;2024-02-15T11:26:44;16.90;1.00
10129;DHT22;5104;50.720;7.044;2024-02-15T11:29:49;16.90;1.00
10129;DHT22;5104;50.720;7.044;2024-02-15T11:32:39;17.20;99.90
10129;DHT22;5104;50.720;7.044;2024-02-15T11:35:09;17.20;99.90
10129;DHT22;5104;50.720;7.044;2024-02-15T11:37:50;17.20;99.90
10129;DHT22;5104;50.720;7.044;2024-02-15T11:40:19;17.30;47.80
10129;DHT22;5104;50.720;7.044;2024-02-15T11:42:50;17.40;1.00
10129;DHT22;5104;50.720;7.044;2024-02-15T11:45:18;17.60;1.00
10129;DHT22;5104;50.720;7.044;2024-02-15T11:47:48;17.70;1.00
10129;DHT22;5104;50.720;7.044;2024-02-15T11:50:16;17.90;1.00
10129;DHT22;5104;50.720;7.044;2024-02-15T11:52:44;18.00;99.90
10129;DHT22;5104;50.720;7.044;2024-02-15T11:55:11;18.20;99.90
10129;DHT22;5104;50.720;7.044;2024-02-15T11:57:39;18.10;99.90
10129;DHT22;5104;50.720;7.044;2024-02-15T12:00:23;18.10;99.90
10129;DHT22;5104;50.720;7.044;2024-02-15T12:03:08;17.90;99.90
10129;DHT22;5104;50.720;7.044;2024-02-15T12:05:53;17.80;99.90
10129;DHT22;5104;50.720;7.044;2024-02-15T12:08:38;17.80;1.00
10129;DHT22;5104;50.720;7.044;2024-02-15T12:11:22;17.90;99.90
10129;DHT22;5104;50.720;7.044;2024-02-15T12:14:06;17.80;99.90
10129;DHT22;5104;50.720;7.044;2024-02-15T12:17:02;17.70;1.00
10129;DHT22;5104;50.720;7.044;2024-02-15T12:19:48;17.60;1.00
10129;DHT22;5104;50.720;7.044;2024-02-15T12:22:18;17.40;1.00
10129;DHT22;5104;50.720;7.044;2024-02-15T12:24:53;17.50;1.00
10129;DHT22;5104;50.720;7.044;2024-02-15T12:27:21;17.60;1.00
10129;DHT22;5104;50.720;7.044;2024-02-15T12:29:53;17.80;1.00
10129;DHT22;5104;50.720;7.044;2024-02-15T12:32:23;17.70;1.00
10129;DHT22;5104;50.720;7.044;2024-02-15T12:34:50;17.60;1.00
10129;DHT22;5104;50.720;7.044;2024-02-15T12:37:18;17.50;1.00
10129;DHT22;5104;50.720;7.044;2024-02-15T12:39:47;17.80;1.00
10129;DHT22;5104;50.720;7.044;2024-02-15T12:42:15;17.90;1.00
10129;DHT22;5104;50.720;7.044;2024-02-15T12:44:44;18.10;99.90
10129;DHT22;5104;50.720;7.044;2024-02-15T12:47:22;18.10;99.90
10129;DHT22;5104;50.720;7.044;2024-02-15T12:49:50;18.20;99.90
10129;DHT22;5104;50.720;7.044;2024-02-15T12:52:37;18.20;99.90
10129;DHT22;5104;50.720;7.044;2024-02-15T12:55:12;18.20;99.90
10129;DHT22;5104;50.720;7.044;2024-02-15T12:57:40;18.30;99.90
10129;DHT22;5104;50.720;7.044;2024-02-15T13:00:11;18.30;99.90
10129;DHT22;5104;50.720;7.044;2024-02-15T13:02:44;18.20;99.90
10129;DHT22;5104;50.720;7.044;2024-02-15T13:05:12;18.20;99.90
10129;DHT22;5104;50.720;7.044;2024-02-15T13:07:39;18.20;99.90
10129;DHT22;5104;50.720;7.044;2024-02-15T13:10:07;18.10;99.90
10129;DHT22;5104;50.720;7.044;2024-02-15T13:12:35;18.20;99.90
10129;DHT22;5104;50.720;7.044;2024-02-15T13:15:04;18.10;99.90
10129;DHT22;5104;50.720;7.044;2024-02-15T13:17:33;18.00;99.90
10129;DHT22;5104;50.720;7.044;2024-02-15T13:20:01;17.90;99.90
10129;DHT22;5104;50.720;7.044;2024-02-15T13:22:36;17.80;99.90
10129;DHT22;5104;50.720;7.044;2024-02-15T13:25:05;17.80;99.90
10129;DHT22;5104;50.720;7.044;2024-02-15T13:27:33;17.70;99.90
10129;DHT22;5104;50.720;7.044;2024-02-15T13:30:00;17.50;99.90
10129;DHT22;5104;50.720;7.044;2024-02-15T13:32:27;17.50;99.90
10129;DHT22;5104;50.720;7.044;2024-02-15T13:34:54;17.40;81.10
10129;DHT22;5104;50.720;7.044;2024-02-15T13:37:24;17.20;93.60
10129;DHT22;5104;50.720;7.044;2024-02-15T13:39:52;17.20;99.90
10129;DHT22;5104;50.720;7.044;2024-02-15T13:42:18;17.30;99.90
10129;DHT22;5104;50.720;7.044;2024-02-15T13:44:45;17.40;99.90
10129;DHT22;5104;50.720;7.044;2024-02-15T13:47:12;17.50;99.90
10129;DHT22;5104;50.720;7.044;2024-02-15T13:49:41;17.40;99.90
10129;DHT22;5104;50.720;7.044;2024-02-15T13:52:08;17.50;99.90
10129;DHT22;5104;50.720;7.044;2024-02-15T13:54:38;17.40;1.00
10129;DHT22;5104;50.720;7.044;2024-02-15T13:57:05;17.40;1.00
10129;DHT22;5104;50.720;7.044;2024-02-15T13:59:32;17.30;1.00
10129;DHT22;5104;50.720;7.044;2024-02-15T14:02:00;17.40;1.00
10129;DHT22;5104;50.720;7.044;2024-02-15T14:04:29;17.40;1.00
10129;DHT22;5104;50.720;7.044;2024-02-15T14:06:57;17.50;99.90
10129;DHT22;5104;50.720;7.044;2024-02-15T14:09:25;17.50;99.90
10129;DHT22;5104;50.720;7.044;2024-02-15T14:11:54;17.60;99.90
10129;DHT22;5104;50.720;7.044;2024-02-15T14:14:21;17.50;1.00
10129;DHT22;5104;50.720;7.044;2024-02-15T14:16:48;17.40;1.00
10129;DHT22;5104;50.720;7.044;2024-02-15T14:19:15;17.30;1.00
10129;DHT22;5104;50.720;7.044;2024-02-15T14:21:43;17.40;1.00
10129;DHT22;5104;50.720;7.044;2024-02-15T14:24:10;17.40;1.00
10129;DHT22;5104;50.720;7.044;2024-02-15T14:26:37;17.20;1.00
10129;DHT22;5104;50.720;7.044;2024-02-15T14:29:05;17.20;1.00
10129;DHT22;5104;50.720;7.044;2024-02-15T14:31:32;17.40;1.00
10129;DHT22;5104;50.720;7.044;2024-02-15T14:34:16;17.40;1.00
10129;DHT22;5104;50.720;7.044;2024-02-15T14:36:46;17.50;1.00
10129;DHT22;5104;50.720;7.044;2024-02-15T14:39:13;17.20;1.00
10129;DHT22;5104;50.720;7.044;2024-02-15T14:41:40;17.10;1.00
10129;DHT22;5104;50.720;7.044;2024-02-15T14:44:10;16.90;1.00
10129;DHT22;5104;50.720;7.044;2024-02-15T14:46:38;17.00;1.00
10129;DHT22;5104;50.720;7.044;2024-02-15T14:49:06;17.00;1.00
10129;DHT22;5104;50.720;7.044;2024-02-15T14:51:34;17.00;1.00
10129;DHT22;5104;50.720;7.044;2024-02-15T14:54:02;17.00;99.90
10129;DHT22;5104;50.720;7.044;2024-02-15T14:56:30;17.00;99.90
10129;DHT22;5104;50.720;7.044;2024-02-15T14:58:58;16.80;99.90
10129;DHT22;5104;50.720;7.044;2024-02-15T15:01:27;16.60;1.00
10129;DHT22;5104;50.720;7.044;2024-02-15T15:03:55;16.50;1.00
10129;DHT22;5104;50.720;7.044;2024-02-15T15:06:24;16.50;1.00
10129;DHT22;5104;50.720;7.044;2024-02-15T15:09:09;16.30;1.00
10129;DHT22;5104;50.720;7.044;2024-02-15T15:11:54;16.30;1.00
10129;DHT22;5104;50.720;7.044;2024-02-15T15:14:39;16.30;1.00
10129;DHT22;5104;50.720;7.044;2024-02-15T15:17:08;16.30;1.00
10129;DHT22;5104;50.720;7.044;2024-02-15T15:19:38;16.20;1.00
10129;DHT22;5104;50.720;7.044;2024-02-15T15:22:05;16.20;1.00
10129;DHT22;5104;50.720;7.044;2024-02-15T15:24:33;16.10;1.00
10129;DHT22;5104;50.720;7.044;2024-02-15T15:27:00;16.00;1.00
10129;DHT22;5104;50.720;7.044;2024-02-15T15:29:30;16.00;1.00
10129;DHT22;5104;50.720;7.044;2024-02-15T15:31:57;16.00;1.00
10129;DHT22;5104;50.720;7.044;2024-02-15T15:34:25;15.90;1.00
10129;DHT22;5104;50.720;7.044;2024-02-15T15:36:52;15.90;1.00
10129;DHT22;5104;50.720;7.044;2024-02-15T15:39:20;15.90;1.00
10129;DHT22;5104;50.720;7.044;2024-02-15T15:41:51;15.90;1.00
10129;DHT22;5104;50.720;7.044;2024-02-15T15:44:20;15.90;1.00
10129;DHT22;5104;50.720;7.044;2024-02-15T15:46:49;15.80;1.00
10129;DHT22;5104;50.720;7.044;2024-02-15T15:49:16;15.70;1.00
10129;DHT22;5104;50.720;7.044;2024-02-15T15:51:45;15.70;1.00
10129;DHT22;5104;50.720;7.044;2024-02-15T15:54:12;15.80;1.00
10129;DHT22;5104;50.720;7.044;2024-02-15T15:56:39;15.80;1.00
10129;DHT22;5104;50.720;7.044;2024-02-15T15:59:06;15.80;1.00
10129;DHT22;5104;50.720;7.044;2024-02-15T16:01:33;15.80;1.00
10129;DHT22;5104;50.720;7.044;2024-02-15T16:04:01;15.60;1.00